sensor_id;sensor_type;location;lat;lon;timestamp;P1;P2;P0
57798;PMS7003;43626;53.866;30.298;2023-03-01T00:01:49;27.6;21.4;10
57798;PMS7003;43626;53.866;30.298;2023-03-01T00:06:51;27.8;21.8;10.8
57798;PMS7003;43626;53.866;30.298;2023-03-01T00:11:14;12.2;11;6.4
57798;PMS7003;43626;53.866;30.298;2023-03-01T00:16:40;8.6;8.2;5
57798;PMS7003;43626;53.866;30.298;2023-03-01T00:21:13;8;7.8;5
57798;PMS7003;43626;53.866;30.298;2023-03-01T00:27:03;9.8;8.6;5.6
57798;PMS7003;43626;53.866;30.298;2023-03-01T00:31:43;9.2;8;5.6
57798;PMS7003;43626;53.866;30.298;2023-03-01T00:36:14;10;8.6;5.2
57798;PMS7003;43626;53.866;30.298;2023-03-01T00:41:39;6.6;5.4;3.8
57798;PMS7003;43626;53.866;30.298;2023-03-01T00:46:49;6.2;5;3.8
57798;PMS7003;43626;53.866;30.298;2023-03-01T00:52:05;6.8;5;3.4
57798;PMS7003;43626;53.866;30.298;2023-03-01T00:56:15;6.4;5.4;3.2
57798;PMS7003;43626;53.866;30.298;2023-03-01T01:01:26;4.8;3.6;2.6
57798;PMS7003;43626;53.866;30.298;2023-03-01T01:06:14;4.8;4.6;2.4
57798;PMS7003;43626;53.866;30.298;2023-03-01T01:11:41;4.6;3.4;2
57798;PMS7003;43626;53.866;30.298;2023-03-01T01:16:51;3.6;3.2;1.8
57798;PMS7003;43626;53.866;30.298;2023-03-01T01:22:05;0.3;0.3;0
57798;PMS7003;43626;53.866;30.298;2023-03-01T01:26:49;1.4;0.4;0.2
57798;PMS7003;43626;53.866;30.298;2023-03-01T01:31:38;1.6;1.2;0.2
57798;PMS7003;43626;53.866;30.298;2023-03-01T01:36:39;2;1.2;0.4
57798;PMS7003;43626;53.866;30.298;2023-03-01T01:41:49;3.2;2;0.8
57798;PMS7003;43626;53.866;30.298;2023-03-01T01:47:06;3.6;2.6;1.4
57798;PMS7003;43626;53.866;30.298;2023-03-01T01:51:49;2.8;2.6;1.4
57798;PMS7003;43626;53.866;30.298;2023-03-01T01:56:39;6.4;4.8;2.2
57798;PMS7003;43626;53.866;30.298;2023-03-01T02:01:13;3.2;2.2;1
57798;PMS7003;43626;53.866;30.298;2023-03-01T02:06:53;1.6;1.4;0.8
57798;PMS7003;43626;53.866;30.298;2023-03-01T02:12:05;1.8;1.4;0.2
57798;PMS7003;43626;53.866;30.298;2023-03-01T02:16:51;1.2;1;0.6
57798;PMS7003;43626;53.866;30.298;2023-03-01T02:21:38;1;1;0
57798;PMS7003;43626;53.866;30.298;2023-03-01T02:26:40;1.8;1.2;0.2
57798;PMS7003;43626;53.866;30.298;2023-03-01T02:32:05;2.4;1.2;0.2
57798;PMS7003;43626;53.866;30.298;2023-03-01T02:36:30;1;0.6;0.2
57798;PMS7003;43626;53.866;30.298;2023-03-01T02:41:37;0.6;0.6;0
57798;PMS7003;43626;53.866;30.298;2023-03-01T02:46:15;0.8;0.6;0
57798;PMS7003;43626;53.866;30.298;2023-03-01T02:51:18;1.4;0.6;0
57798;PMS7003;43626;53.866;30.298;2023-03-01T02:56:51;1.2;0.4;0
57798;PMS7003;43626;53.866;30.298;2023-03-01T03:02:05;0.6;0.6;0
57798;PMS7003;43626;53.866;30.298;2023-03-01T03:06:43;1.2;0.4;0
57798;PMS7003;43626;53.866;30.298;2023-03-01T03:11:13;0.8;0.2;0
57798;PMS7003;43626;53.866;30.298;2023-03-01T03:16:13;0.6;0.6;0
57798;PMS7003;43626;53.866;30.298;2023-03-01T03:21:51;3;1;0.3
57798;PMS7003;43626;53.866;30.298;2023-03-01T03:27:05;2;1.2;0.2
57798;PMS7003;43626;53.866;30.298;2023-03-01T03:31:15;1.6;1.2;0.2
57798;PMS7003;43626;53.866;30.298;2023-03-01T03:36:39;1.6;1;0
57798;PMS7003;43626;53.866;30.298;2023-03-01T03:41:25;1.2;0.8;0.2
57798;PMS7003;43626;53.866;30.298;2023-03-01T03:46:51;2;1;0.2
57798;PMS7003;43626;53.866;30.298;2023-03-01T03:52:03;1.6;1;0.2
57798;PMS7003;43626;53.866;30.298;2023-03-01T03:56:49;1.8;1.4;0.4
57798;PMS7003;43626;53.866;30.298;2023-03-01T04:01:37;1.4;0.8;0
57798;PMS7003;43626;53.866;30.298;2023-03-01T04:06:25;1;0.8;0
57798;PMS7003;43626;53.866;30.298;2023-03-01T04:11:51;2.2;1.8;0.6
57798;PMS7003;43626;53.866;30.298;2023-03-01T04:17:05;2.6;1.2;0.6
57798;PMS7003;43626;53.866;30.298;2023-03-01T04:21:51;1.6;1.2;0.2
57798;PMS7003;43626;53.866;30.298;2023-03-01T04:26:25;2;1.3;0.8
57798;PMS7003;43626;53.866;30.298;2023-03-01T04:31:14;2;1.6;1
57798;PMS7003;43626;53.866;30.298;2023-03-01T04:36:47;3.2;2.6;1.6
57798;PMS7003;43626;53.866;30.298;2023-03-01T04:42:03;4;3.4;1.6
57798;PMS7003;43626;53.866;30.298;2023-03-01T04:46:49;2.4;2.2;1
57798;PMS7003;43626;53.866;30.298;2023-03-01T04:51:39;4.4;3.6;2
57798;PMS7003;43626;53.866;30.298;2023-03-01T04:56:13;5;3.6;2.2
57798;PMS7003;43626;53.866;30.298;2023-03-01T05:01:47;5.4;3.6;2
57798;PMS7003;43626;53.866;30.298;2023-03-01T05:07:03;3.4;2.8;1.4
57798;PMS7003;43626;53.866;30.298;2023-03-01T05:11:49;3.4;3.2;1.6
57798;PMS7003;43626;53.866;30.298;2023-03-01T05:16:13;3.8;3.4;2
57798;PMS7003;43626;53.866;30.298;2023-03-01T05:21:23;6.6;5;2.6
57798;PMS7003;43626;53.866;30.298;2023-03-01T05:26:13;6;4;2.3
57798;PMS7003;43626;53.866;30.298;2023-03-01T05:32:02;6.2;3.6;2
57798;PMS7003;43626;53.866;30.298;2023-03-01T05:37:02;4.2;3.2;2
57798;PMS7003;43626;53.866;30.298;2023-03-01T05:41:37;6;4.8;2.2
57798;PMS7003;43626;53.866;30.298;2023-03-01T05:46:27;8.4;5.8;3.2
57798;PMS7003;43626;53.866;30.298;2023-03-01T05:51:48;6.6;4.8;2.8
57798;PMS7003;43626;53.866;30.298;2023-03-01T05:57:03;5.6;4.6;2.6
57798;PMS7003;43626;53.866;30.298;2023-03-01T06:01:51;10.6;7.8;3.8
57798;PMS7003;43626;53.866;30.298;2023-03-01T06:06:25;6.6;5;2.8
57798;PMS7003;43626;53.866;30.298;2023-03-01T06:11:15;7.6;5.2;2.8
57798;PMS7003;43626;53.866;30.298;2023-03-01T06:16:15;6;5;2.8
57798;PMS7003;43626;53.866;30.298;2023-03-01T06:22:05;6.2;4.8;2.4
57798;PMS7003;43626;53.866;30.298;2023-03-01T06:26:52;7.8;6;3
57798;PMS7003;43626;53.866;30.298;2023-03-01T06:31:15;5.6;4.6;2.6
57798;PMS7003;43626;53.866;30.298;2023-03-01T06:36:15;6;3.6;2.2
57798;PMS7003;43626;53.866;30.298;2023-03-01T06:41:37;5.8;5;2.8
57798;PMS7003;43626;53.866;30.298;2023-03-01T06:46:51;6.4;5.2;2.8
57798;PMS7003;43626;53.866;30.298;2023-03-01T06:51:51;6.4;4.8;2.8
57798;PMS7003;43626;53.866;30.298;2023-03-01T06:56:39;12.6;8.6;4.8
57798;PMS7003;43626;53.866;30.298;2023-03-01T07:01:27;9.8;7.6;4.6
57798;PMS7003;43626;53.866;30.298;2023-03-01T07:06:27;8.4;7.2;3.6
57798;PMS7003;43626;53.866;30.298;2023-03-01T07:12:05;14;10.4;5.4
57798;PMS7003;43626;53.866;30.298;2023-03-01T07:16:53;14.2;12;6.2
57798;PMS7003;43626;53.866;30.298;2023-03-01T07:21:41;15.6;11.8;4.6
57798;PMS7003;43626;53.866;30.298;2023-03-01T07:26:15;11.5;9;4.3
57798;PMS7003;43626;53.866;30.298;2023-03-01T07:31:41;8.4;5.2;2.8
57798;PMS7003;43626;53.866;30.298;2023-03-01T07:37:07;7.2;6;3
57798;PMS7003;43626;53.866;30.298;2023-03-01T07:41:53;7.2;5.8;3.2
57798;PMS7003;43626;53.866;30.298;2023-03-01T07:46:15;9;6;2.8
57798;PMS7003;43626;53.866;30.298;2023-03-01T07:51:27;9.6;6.6;3.6
57798;PMS7003;43626;53.866;30.298;2023-03-01T07:56:15;8.2;5.8;3
57798;PMS7003;43626;53.866;30.298;2023-03-01T08:02:05;5.4;4.4;2.4
57798;PMS7003;43626;53.866;30.298;2023-03-01T08:06:49;6;4.4;3
57798;PMS7003;43626;53.866;30.298;2023-03-01T08:11:27;6.8;4.4;2.2
57798;PMS7003;43626;53.866;30.298;2023-03-01T08:16:15;8.4;6.4;3
57798;PMS7003;43626;53.866;30.298;2023-03-01T08:21:16;8.2;5.8;3
57798;PMS7003;43626;53.866;30.298;2023-03-01T08:27:03;7.8;5.3;2.5
57798;PMS7003;43626;53.866;30.298;2023-03-01T08:31:53;5.6;3.4;2
57798;PMS7003;43626;53.866;30.298;2023-03-01T08:36:28;5;3.4;1.8
57798;PMS7003;43626;53.866;30.298;2023-03-01T08:41:27;4.4;4.2;2.2
57798;PMS7003;43626;53.866;30.298;2023-03-01T08:46:42;4.2;3.6;2
57798;PMS7003;43626;53.866;30.298;2023-03-01T08:52:05;5.6;3.2;1.6
57798;PMS7003;43626;53.866;30.298;2023-03-01T08:56:49;5.2;3.4;1.8
57798;PMS7003;43626;53.866;30.298;2023-03-01T09:01:39;4.6;3.8;2.4
57798;PMS7003;43626;53.866;30.298;2023-03-01T09:06:29;4.4;2.8;1.4
57798;PMS7003;43626;53.866;30.298;2023-03-01T09:11:39;3.4;2.4;1.2
57798;PMS7003;43626;53.866;30.298;2023-03-01T09:17:05;2.8;2.4;1
57798;PMS7003;43626;53.866;30.298;2023-03-01T09:22:05;2.6;2.2;1
57798;PMS7003;43626;53.866;30.298;2023-03-01T09:26:43;2.8;2.2;1
57798;PMS7003;43626;53.866;30.298;2023-03-01T09:31:16;4.3;3;1.8
57798;PMS7003;43626;53.866;30.298;2023-03-01T09:37:03;3.2;2.6;1.4
57798;PMS7003;43626;53.866;30.298;2023-03-01T09:42:05;2.6;2;1.2
57798;PMS7003;43626;53.866;30.298;2023-03-01T09:46:15;2.8;2;0.8
57798;PMS7003;43626;53.866;30.298;2023-03-01T09:51:54;3;2.8;1.2
57798;PMS7003;43626;53.866;30.298;2023-03-01T09:56:44;5.2;4.8;2
57798;PMS7003;43626;53.866;30.298;2023-03-01T10:02:05;3.8;2.8;1.6
57798;PMS7003;43626;53.866;30.298;2023-03-01T10:06:51;2.6;2.6;1.4
57798;PMS7003;43626;53.866;30.298;2023-03-01T10:11:35;3.8;2.8;1.6
57798;PMS7003;43626;53.866;30.298;2023-03-01T10:16:54;3;2.2;1.2
57798;PMS7003;43626;53.866;30.298;2023-03-01T10:21:16;2.2;1.4;0.6
57798;PMS7003;43626;53.866;30.298;2023-03-01T10:27:04;3;1.8;0.6
57798;PMS7003;43626;53.866;30.298;2023-03-01T10:31:53;2;1.5;1
57798;PMS7003;43626;53.866;30.298;2023-03-01T10:36:35;2.2;1;0.4
57798;PMS7003;43626;53.866;30.298;2023-03-01T10:41:56;2.4;1.8;0.6
57798;PMS7003;43626;53.866;30.298;2023-03-01T10:46:31;2.2;1;0
57798;PMS7003;43626;53.866;30.298;2023-03-01T10:52:11;3;2.6;0.8
57798;PMS7003;43626;53.866;30.298;2023-03-01T10:56:54;3.4;1.6;0.4
57798;PMS7003;43626;53.866;30.298;2023-03-01T11:01:34;2.4;1.6;1
57798;PMS7003;43626;53.866;30.298;2023-03-01T11:06:57;5.4;4.2;2
57798;PMS7003;43626;53.866;30.298;2023-03-01T11:11:30;11.6;8;4.8
57798;PMS7003;43626;53.866;30.298;2023-03-01T11:17:04;4.2;3;1.8
57798;PMS7003;43626;53.866;30.298;2023-03-01T11:21:42;3.4;2.8;1.4
57798;PMS7003;43626;53.866;30.298;2023-03-01T11:26:36;9.8;6.4;3
57798;PMS7003;43626;53.866;30.298;2023-03-01T11:31:54;4;2.8;2
57798;PMS7003;43626;53.866;30.298;2023-03-01T11:36:27;3.8;2.6;1.6
57798;PMS7003;43626;53.866;30.298;2023-03-01T11:42:05;4.2;3.4;1.8
57798;PMS7003;43626;53.866;30.298;2023-03-01T11:46:58;8.2;5.8;2.8
57798;PMS7003;43626;53.866;30.298;2023-03-01T11:51:24;6.4;5;2.4
57798;PMS7003;43626;53.866;30.298;2023-03-01T11:56:31;3.4;3;1.2
57798;PMS7003;43626;53.866;30.298;2023-03-01T12:01:18;0.8;0.6;0.2
57798;PMS7003;43626;53.866;30.298;2023-03-01T12:06:59;2.2;1.4;0.6
57798;PMS7003;43626;53.866;30.298;2023-03-01T12:11:54;3.2;2;1
57798;PMS7003;43626;53.866;30.298;2023-03-01T12:16:52;5;3.2;1.6
57798;PMS7003;43626;53.866;30.298;2023-03-01T12:21:42;4.4;3.6;1.4
57798;PMS7003;43626;53.866;30.298;2023-03-01T12:26:17;1.8;1.4;0.6
57798;PMS7003;43626;53.866;30.298;2023-03-01T12:32:05;2.3;1.5;0.5
57798;PMS7003;43626;53.866;30.298;2023-03-01T12:36:54;3.2;2;0.8
57798;PMS7003;43626;53.866;30.298;2023-03-01T12:41:48;2.2;1.6;0.6
57798;PMS7003;43626;53.866;30.298;2023-03-01T12:46:52;1.6;1.6;0.6
57798;PMS7003;43626;53.866;30.298;2023-03-01T12:51:24;2.2;1.6;0.6
57798;PMS7003;43626;53.866;30.298;2023-03-01T12:57:06;2.6;1.8;0.6
57798;PMS7003;43626;53.866;30.298;2023-03-01T13:01:54;2.4;2.4;0.6
57798;PMS7003;43626;53.866;30.298;2023-03-01T13:06:38;1.8;1.2;0.8
57798;PMS7003;43626;53.866;30.298;2023-03-01T13:11:53;2;0.8;0
57798;PMS7003;43626;53.866;30.298;2023-03-01T13:16:42;6.2;4;2
57798;PMS7003;43626;53.866;30.298;2023-03-01T13:21:50;6;4.4;2.2
57798;PMS7003;43626;53.866;30.298;2023-03-01T13:26:27;2.4;2;1
57798;PMS7003;43626;53.866;30.298;2023-03-01T13:48:38;5.5;5;3
57798;PMS7003;43626;53.866;30.298;2023-03-01T14:08:59;8.5;8;4
57798;PMS7003;43626;53.866;30.298;2023-03-01T14:14:06;5.8;5;2.8
57798;PMS7003;43626;53.866;30.298;2023-03-01T14:18:26;3.3;3;1.5
57798;PMS7003;43626;53.866;30.298;2023-03-01T14:23:42;3.4;2.2;1.2
57798;PMS7003;43626;53.866;30.298;2023-03-01T14:28:27;5.8;4.6;3
57798;PMS7003;43626;53.866;30.298;2023-03-01T14:34:16;6;4.8;3.4
57798;PMS7003;43626;53.866;30.298;2023-03-01T14:39:15;9.8;7;4.2
57798;PMS7003;43626;53.866;30.298;2023-03-01T14:43:26;9;7.4;4.4
57798;PMS7003;43626;53.866;30.298;2023-03-01T14:49:15;39.4;31.2;15.6
57798;PMS7003;43626;53.866;30.298;2023-03-01T14:53:27;20.2;17.2;11.2
57798;PMS7003;43626;53.866;30.298;2023-03-01T14:59:14;19.2;15.8;9.2
57798;PMS7003;43626;53.866;30.298;2023-03-01T15:04:02;17.4;14.2;8.2
57798;PMS7003;43626;53.866;30.298;2023-03-01T15:08:26;30.6;23;12.6
57798;PMS7003;43626;53.866;30.298;2023-03-01T15:14:45;23.6;19.6;11.2
57798;PMS7003;43626;53.866;30.298;2023-03-01T15:18:51;20.8;17.5;9.5
57798;PMS7003;43626;53.866;30.298;2023-03-01T15:24:16;36.2;27.4;15.6
57798;PMS7003;43626;53.866;30.298;2023-03-01T15:29:04;18.6;15.2;8.8
57798;PMS7003;43626;53.866;30.298;2023-03-01T15:33:38;10;7;3.8
57798;PMS7003;43626;53.866;30.298;2023-03-01T15:39:31;24.8;20.8;10.2
57798;PMS7003;43626;53.866;30.298;2023-03-01T15:43:41;45;33.2;17.4
57798;PMS7003;43626;53.866;30.298;2023-03-01T15:49:21;47.6;34.8;19.8
57798;PMS7003;43626;53.866;30.298;2023-03-01T15:53:28;54;41.8;23.2
57798;PMS7003;43626;53.866;30.298;2023-03-01T15:58:44;36.2;29;16.6
57798;PMS7003;43626;53.866;30.298;2023-03-01T16:04:13;11.4;8.6;5
57798;PMS7003;43626;53.866;30.298;2023-03-01T16:08:50;9.4;7.6;3.8
57798;PMS7003;43626;53.866;30.298;2023-03-01T16:14:14;7.2;5.6;2.6
57798;PMS7003;43626;53.866;30.298;2023-03-01T16:19:04;6.8;4.8;3
57798;PMS7003;43626;53.866;30.298;2023-03-01T16:23:26;10.6;9.2;5.2
57798;PMS7003;43626;53.866;30.298;2023-03-01T16:29:14;22.6;17.6;10.4
57798;PMS7003;43626;53.866;30.298;2023-03-01T16:33:38;30.8;24.6;14.8
57798;PMS7003;43626;53.866;30.298;2023-03-01T16:39:14;14.2;9.6;5.6
57798;PMS7003;43626;53.866;30.298;2023-03-01T16:44:02;12.6;10.2;5.8
57798;PMS7003;43626;53.866;30.298;2023-03-01T16:48:26;22;19;11.6
57798;PMS7003;43626;53.866;30.298;2023-03-01T16:54:14;29.4;23.8;12.6
57798;PMS7003;43626;53.866;30.298;2023-03-01T16:58:48;37.4;30.2;17
57798;PMS7003;43626;53.866;30.298;2023-03-01T17:04:14;45.6;36.6;22
57798;PMS7003;43626;53.866;30.298;2023-03-01T17:08:50;56.8;42;24.8
57798;PMS7003;43626;53.866;30.298;2023-03-01T17:13:38;33.4;27.2;17
57798;PMS7003;43626;53.866;30.298;2023-03-01T17:19:14;24;20.8;13.3
57798;PMS7003;43626;53.866;30.298;2023-03-01T17:23:50;17.2;15.8;10.6
57798;PMS7003;43626;53.866;30.298;2023-03-01T17:29:16;16.4;14.2;9.8
57798;PMS7003;43626;53.866;30.298;2023-03-01T17:34:02;16.6;12.6;7.6
57798;PMS7003;43626;53.866;30.298;2023-03-01T17:38:27;10.4;8.8;4.8
57798;PMS7003;43626;53.866;30.298;2023-03-01T17:44:12;13.8;9.6;5.2
57798;PMS7003;43626;53.866;30.298;2023-03-01T17:48:52;27;21.6;12
57798;PMS7003;43626;53.866;30.298;2023-03-01T17:53:26;20;16.8;11.2
57798;PMS7003;43626;53.866;30.298;2023-03-01T17:59:16;27.2;20.2;12.4
57798;PMS7003;43626;53.866;30.298;2023-03-01T18:03:26;60;43.8;22.4
57798;PMS7003;43626;53.866;30.298;2023-03-01T18:09:14;68.2;48.8;26.6
57798;PMS7003;43626;53.866;30.298;2023-03-01T18:14:14;61.8;46.4;26.2
57798;PMS7003;43626;53.866;30.298;2023-03-01T18:19:02;45.2;34.6;18
57798;PMS7003;43626;53.866;30.298;2023-03-01T18:24:14;13;10.3;5.3
57798;PMS7003;43626;53.866;30.298;2023-03-01T18:28:26;8.2;6;3.4
57798;PMS7003;43626;53.866;30.298;2023-03-01T18:34:16;6.4;4.6;2.6
57798;PMS7003;43626;53.866;30.298;2023-03-01T18:38:52;8;5.6;3.4
57798;PMS7003;43626;53.866;30.298;2023-03-01T18:43:28;9;7.4;4.4
57798;PMS7003;43626;53.866;30.298;2023-03-01T18:48:40;7;4.2;2.6
57798;PMS7003;43626;53.866;30.298;2023-03-01T18:53:26;6.6;4;2
57798;PMS7003;43626;53.866;30.298;2023-03-01T18:59:16;5;3.6;2.4
57798;PMS7003;43626;53.866;30.298;2023-03-01T19:03:26;5.6;4.4;2.4
57798;PMS7003;43626;53.866;30.298;2023-03-01T19:09:00;4;3.2;2.2
57798;PMS7003;43626;53.866;30.298;2023-03-01T19:14:06;4.8;3.2;2
57798;PMS7003;43626;53.866;30.298;2023-03-01T19:18:34;5.2;3.8;2.4
57798;PMS7003;43626;53.866;30.298;2023-03-01T19:24:16;5.3;4.3;2.5
57798;PMS7003;43626;53.866;30.298;2023-03-01T19:28:50;5.4;4.6;2.8
57798;PMS7003;43626;53.866;30.298;2023-03-01T19:34:00;5;4;1.8
57798;PMS7003;43626;53.866;30.298;2023-03-01T19:39:12;5.8;3.2;1.8
57798;PMS7003;43626;53.866;30.298;2023-03-01T19:43:38;4.4;2.6;1.6
57798;PMS7003;43626;53.866;30.298;2023-03-01T19:49:12;4.4;3.2;1.6
57798;PMS7003;43626;53.866;30.298;2023-03-01T19:53:26;4;2.8;1.2
57798;PMS7003;43626;53.866;30.298;2023-03-01T19:59:00;4;3.4;1.4
57798;PMS7003;43626;53.866;30.298;2023-03-01T20:04:12;4;2.4;0.8
57798;PMS7003;43626;53.866;30.298;2023-03-01T20:08:36;5.2;3.4;1.8
57798;PMS7003;43626;53.866;30.298;2023-03-01T20:14:14;6.2;3.8;2
57798;PMS7003;43626;53.866;30.298;2023-03-01T20:18:50;3.2;2.6;1.2
57798;PMS7003;43626;53.866;30.298;2023-03-01T20:24:00;4;2.5;1.5
57798;PMS7003;43626;53.866;30.298;2023-03-01T20:29:16;2.8;2.2;1.4
57798;PMS7003;43626;53.866;30.298;2023-03-01T20:33:26;3.2;2.4;1.4
57798;PMS7003;43626;53.866;30.298;2023-03-01T20:39:04;3.4;3;1.4
57798;PMS7003;43626;53.866;30.298;2023-03-01T20:43:50;4.6;2.6;1.4
57798;PMS7003;43626;53.866;30.298;2023-03-01T20:49:00;2.6;2;1
57798;PMS7003;43626;53.866;30.298;2023-03-01T20:54:14;3.2;2;1
57798;PMS7003;43626;53.866;30.298;2023-03-01T20:58:34;2.8;2.6;1.2
57798;PMS7003;43626;53.866;30.298;2023-03-01T21:03:26;3.2;2.4;1.4
57798;PMS7003;43626;53.866;30.298;2023-03-01T21:08:58;3.2;2;1
57798;PMS7003;43626;53.866;30.298;2023-03-01T21:14:14;3.2;2.4;1.2
57798;PMS7003;43626;53.866;30.298;2023-03-01T21:19:16;3.4;2.4;1
57798;PMS7003;43626;53.866;30.298;2023-03-01T21:23:40;2.8;2.3;1.3
57798;PMS7003;43626;53.866;30.298;2023-03-01T21:28:54;2.6;2.4;1
57798;PMS7003;43626;53.866;30.298;2023-03-01T21:34:00;2.8;1.4;0.6
57798;PMS7003;43626;53.866;30.298;2023-03-01T21:39:12;3.6;1.8;0.6
57798;PMS7003;43626;53.866;30.298;2023-03-01T21:44:00;2.2;1.8;0.8
57798;PMS7003;43626;53.866;30.298;2023-03-01T21:48:52;2.8;2;0.6
57798;PMS7003;43626;53.866;30.298;2023-03-01T21:53:27;2.8;1.6;0.8
57798;PMS7003;43626;53.866;30.298;2023-03-01T21:59:00;3.8;1.8;1
57798;PMS7003;43626;53.866;30.298;2023-03-01T22:04:02;1.4;1.2;0.6
57798;PMS7003;43626;53.866;30.298;2023-03-01T22:08:58;1.8;1.2;0.8
57798;PMS7003;43626;53.866;30.298;2023-03-01T22:13:26;2;1.8;0.6
57798;PMS7003;43626;53.866;30.298;2023-03-01T22:18:50;2;1.6;0.8
57798;PMS7003;43626;53.866;30.298;2023-03-01T22:23:40;2.3;1.3;0.8
57798;PMS7003;43626;53.866;30.298;2023-03-01T22:29:15;2.4;1.8;0.8
57798;PMS7003;43626;53.866;30.298;2023-03-01T22:33:52;1.6;1.2;0.6
57798;PMS7003;43626;53.866;30.298;2023-03-01T22:38:38;2.6;1.8;0.8
57798;PMS7003;43626;53.866;30.298;2023-03-01T22:43:48;2.4;2;0.6
57798;PMS7003;43626;53.866;30.298;2023-03-01T22:48:58;3.2;1.8;1
57798;PMS7003;43626;53.866;30.298;2023-03-01T22:54:14;2.2;1.8;0.8
57798;PMS7003;43626;53.866;30.298;2023-03-01T22:58:58;2;1.2;0.6
57798;PMS7003;43626;53.866;30.298;2023-03-01T23:03:26;3.8;2;0.6
57798;PMS7003;43626;53.866;30.298;2023-03-01T23:08:50;3;1.4;0.4
57798;PMS7003;43626;53.866;30.298;2023-03-01T23:14:00;2.8;1.8;0.8
57798;PMS7003;43626;53.866;30.298;2023-03-01T23:19:14;2.2;1.2;0.4
57798;PMS7003;43626;53.866;30.298;2023-03-01T23:24:00;2;0.8;0.4
57798;PMS7003;43626;53.866;30.298;2023-03-01T23:28:38;2;0.8;0.3
57798;PMS7003;43626;53.866;30.298;2023-03-01T23:33:52;2;1.4;0.2
57798;PMS7003;43626;53.866;30.298;2023-03-01T23:39:00;2.2;1;0.4
57798;PMS7003;43626;53.866;30.298;2023-03-01T23:44:14;2;2;0.6
57798;PMS7003;43626;53.866;30.298;2023-03-01T23:48:58;3;1.6;0.2
57798;PMS7003;43626;53.866;30.298;2023-03-01T23:53:38;2;1.6;0.4
57798;PMS7003;43626;53.866;30.298;2023-03-01T23:58:50;2;1.4;0.8
